sensor_id;sensor_type;location;lat;lon;timestamp;pressure;altitude;pressure_sealevel;temperature;humidity
46129;BME280;31860;45.186;5.790;2023-08-20T00:02:23;99281.00;;;29.13;44.29
46129;BME280;31860;45.186;5.790;2023-08-20T00:04:48;99276.78;;;29.09;43.92
46129;BME280;31860;45.186;5.790;2023-08-20T00:07:15;99278.94;;;29.04;43.90
46129;BME280;31860;45.186;5.790;2023-08-20T00:09:43;99282.72;;;29.01;43.89
46129;BME280;31860;45.186;5.790;2023-08-20T00:12:09;99284.25;;;28.92;44.13
46129;BME280;31860;45.186;5.790;2023-08-20T00:14:53;99282.09;;;28.85;44.73
46129;BME280;31860;45.186;5.790;2023-08-20T00:17:23;99285.16;;;28.80;44.38
46129;BME280;31860;45.186;5.790;2023-08-20T00:19:50;99289.91;;;28.77;44.56
46129;BME280;31860;45.186;5.790;2023-08-20T00:22:16;99282.03;;;28.74;44.46
46129;BME280;31860;45.186;5.790;2023-08-20T00:24:42;99286.78;;;28.70;44.75
46129;BME280;31860;45.186;5.790;2023-08-20T00:27:07;99282.50;;;28.68;44.64
46129;BME280;31860;45.186;5.790;2023-08-20T00:29:33;99277.84;;;28.70;44.72
46129;BME280;31860;45.186;5.790;2023-08-20T00:31:58;99278.81;;;28.69;44.78
46129;BME280;31860;45.186;5.790;2023-08-20T00:34:23;99283.22;;;28.70;44.39
46129;BME280;31860;45.186;5.790;2023-08-20T00:36:49;99285.06;;;28.69;44.43
46129;BME280;31860;45.186;5.790;2023-08-20T00:39:14;99287.34;;;28.63;44.43
46129;BME280;31860;45.186;5.790;2023-08-20T00:41:40;99300.03;;;28.61;44.87
46129;BME280;31860;45.186;5.790;2023-08-20T00:44:06;99295.75;;;28.58;44.72
46129;BME280;31860;45.186;5.790;2023-08-20T00:46:31;99293.91;;;28.59;44.99
46129;BME280;31860;45.186;5.790;2023-08-20T00:48:57;99295.00;;;28.56;45.42
46129;BME280;31860;45.186;5.790;2023-08-20T00:51:23;99297.78;;;28.55;45.30
46129;BME280;31860;45.186;5.790;2023-08-20T00:53:48;99297.97;;;28.52;45.41
46129;BME280;31860;45.186;5.790;2023-08-20T00:56:15;99298.19;;;28.49;45.36
46129;BME280;31860;45.186;5.790;2023-08-20T00:58:41;99296.47;;;28.48;45.53
46129;BME280;31860;45.186;5.790;2023-08-20T01:01:06;99296.59;;;28.46;45.19
46129;BME280;31860;45.186;5.790;2023-08-20T01:03:31;99300.25;;;28.45;45.18
46129;BME280;31860;45.186;5.790;2023-08-20T01:06:07;99300.97;;;28.47;45.22
46129;BME280;31860;45.186;5.790;2023-08-20T01:08:39;99303.78;;;28.46;45.22
46129;BME280;31860;45.186;5.790;2023-08-20T01:11:22;99309.16;;;28.46;45.28
46129;BME280;31860;45.186;5.790;2023-08-20T01:13:50;99310.44;;;28.40;45.32
46129;BME280;31860;45.186;5.790;2023-08-20T01:16:15;99315.94;;;28.39;45.39
46129;BME280;31860;45.186;5.790;2023-08-20T01:18:41;99321.56;;;28.36;45.47
46129;BME280;31860;45.186;5.790;2023-08-20T01:21:27;99320.44;;;28.38;45.42
46129;BME280;31860;45.186;5.790;2023-08-20T01:27:19;99318.63;;;28.39;45.47
46129;BME280;31860;45.186;5.790;2023-08-20T01:29:52;99317.88;;;28.37;45.23
46129;BME280;31860;45.186;5.790;2023-08-20T01:32:18;99318.88;;;28.36;45.19
46129;BME280;31860;45.186;5.790;2023-08-20T01:34:45;99326.81;;;28.37;45.30
46129;BME280;31860;45.186;5.790;2023-08-20T01:37:10;99321.31;;;28.39;45.42
46129;BME280;31860;45.186;5.790;2023-08-20T01:39:36;99325.00;;;28.38;45.16
46129;BME280;31860;45.186;5.790;2023-08-20T01:42:01;99329.38;;;28.39;45.53
46129;BME280;31860;45.186;5.790;2023-08-20T01:44:26;99323.25;;;28.37;45.12
46129;BME280;31860;45.186;5.790;2023-08-20T01:46:52;99325.06;;;28.36;45.64
46129;BME280;31860;45.186;5.790;2023-08-20T01:49:17;99330.56;;;28.35;45.43
46129;BME280;31860;45.186;5.790;2023-08-20T01:51:43;99336.94;;;28.34;45.34
46129;BME280;31860;45.186;5.790;2023-08-20T01:54:08;99336.94;;;28.34;45.67
46129;BME280;31860;45.186;5.790;2023-08-20T01:56:33;99337.88;;;28.33;45.76
46129;BME280;31860;45.186;5.790;2023-08-20T01:58:58;99341.44;;;28.33;45.59
46129;BME280;31860;45.186;5.790;2023-08-20T02:01:24;99337.13;;;28.31;46.15
46129;BME280;31860;45.186;5.790;2023-08-20T02:03:50;99336.47;;;28.27;46.52
46129;BME280;31860;45.186;5.790;2023-08-20T02:06:15;99344.78;;;28.24;46.73
46129;BME280;31860;45.186;5.790;2023-08-20T02:08:40;99341.53;;;28.19;46.86
46129;BME280;31860;45.186;5.790;2023-08-20T02:11:06;99343.38;;;28.19;47.16
46129;BME280;31860;45.186;5.790;2023-08-20T02:13:31;99340.88;;;28.16;46.81
46129;BME280;31860;45.186;5.790;2023-08-20T02:15:58;99340.75;;;28.04;46.59
46129;BME280;31860;45.186;5.790;2023-08-20T02:18:23;99342.03;;;27.99;46.74
46129;BME280;31860;45.186;5.790;2023-08-20T02:20:49;99346.19;;;27.90;46.80
46129;BME280;31860;45.186;5.790;2023-08-20T02:23:14;99343.06;;;27.84;46.54
46129;BME280;31860;45.186;5.790;2023-08-20T02:25:39;99342.41;;;27.80;46.48
46129;BME280;31860;45.186;5.790;2023-08-20T02:28:05;99346.16;;;27.78;46.88
46129;BME280;31860;45.186;5.790;2023-08-20T02:30:30;99346.47;;;27.73;46.87
46129;BME280;31860;45.186;5.790;2023-08-20T02:32:55;99343.88;;;27.72;46.39
46129;BME280;31860;45.186;5.790;2023-08-20T02:35:21;99350.09;;;27.72;46.53
46129;BME280;31860;45.186;5.790;2023-08-20T02:37:46;99351.28;;;27.68;46.46
46129;BME280;31860;45.186;5.790;2023-08-20T02:40:11;99349.34;;;27.70;46.49
46129;BME280;31860;45.186;5.790;2023-08-20T02:42:38;99349.56;;;27.67;46.67
46129;BME280;31860;45.186;5.790;2023-08-20T02:45:04;99342.47;;;27.66;46.66
46129;BME280;31860;45.186;5.790;2023-08-20T02:47:29;99346.22;;;27.64;47.05
46129;BME280;31860;45.186;5.790;2023-08-20T02:49:55;99337.31;;;27.63;47.04
46129;BME280;31860;45.186;5.790;2023-08-20T02:52:20;99339.78;;;27.66;46.50
46129;BME280;31860;45.186;5.790;2023-08-20T02:54:45;99344.19;;;27.67;46.91
46129;BME280;31860;45.186;5.790;2023-08-20T02:57:11;99341.19;;;27.72;47.15
46129;BME280;31860;45.186;5.790;2023-08-20T02:59:36;99334.97;;;27.71;48.69
46129;BME280;31860;45.186;5.790;2023-08-20T03:02:01;99346.66;;;27.70;50.71
46129;BME280;31860;45.186;5.790;2023-08-20T03:04:28;99351.28;;;27.68;51.91
46129;BME280;31860;45.186;5.790;2023-08-20T03:06:54;99350.63;;;27.65;51.56
46129;BME280;31860;45.186;5.790;2023-08-20T03:09:19;99349.88;;;27.63;51.14
46129;BME280;31860;45.186;5.790;2023-08-20T03:11:44;99354.16;;;27.53;50.64
46129;BME280;31860;45.186;5.790;2023-08-20T03:14:10;99349.63;;;27.53;50.24
46129;BME280;31860;45.186;5.790;2023-08-20T03:16:35;99344.25;;;27.53;49.82
46129;BME280;31860;45.186;5.790;2023-08-20T03:19:00;99351.34;;;27.54;49.96
46129;BME280;31860;45.186;5.790;2023-08-20T03:21:26;99353.56;;;27.48;49.62
46129;BME280;31860;45.186;5.790;2023-08-20T03:23:51;99345.50;;;27.48;49.15
46129;BME280;31860;45.186;5.790;2023-08-20T03:26:16;99354.66;;;27.45;48.86
46129;BME280;31860;45.186;5.790;2023-08-20T03:28:42;99349.69;;;27.39;48.93
46129;BME280;31860;45.186;5.790;2023-08-20T03:31:07;99355.34;;;27.35;49.27
46129;BME280;31860;45.186;5.790;2023-08-20T03:33:32;99356.44;;;27.32;49.28
46129;BME280;31860;45.186;5.790;2023-08-20T03:35:58;99353.78;;;27.31;48.99
46129;BME280;31860;45.186;5.790;2023-08-20T03:38:23;99356.56;;;27.29;48.70
46129;BME280;31860;45.186;5.790;2023-08-20T03:40:49;99358.38;;;27.29;49.11
46129;BME280;31860;45.186;5.790;2023-08-20T03:43:15;99359.09;;;27.32;49.31
46129;BME280;31860;45.186;5.790;2023-08-20T03:45:40;99353.63;;;27.34;49.32
46129;BME280;31860;45.186;5.790;2023-08-20T03:48:05;99353.53;;;27.35;50.18
46129;BME280;31860;45.186;5.790;2023-08-20T03:50:31;99354.28;;;27.37;49.69
46129;BME280;31860;45.186;5.790;2023-08-20T03:52:56;99362.69;;;27.31;49.89
46129;BME280;31860;45.186;5.790;2023-08-20T03:55:21;99363.75;;;27.29;49.83
46129;BME280;31860;45.186;5.790;2023-08-20T03:57:47;99364.94;;;27.25;49.48
46129;BME280;31860;45.186;5.790;2023-08-20T04:00:12;99361.69;;;27.19;49.19
46129;BME280;31860;45.186;5.790;2023-08-20T04:02:38;99367.34;;;27.15;49.57
46129;BME280;31860;45.186;5.790;2023-08-20T04:05:04;99369.16;;;27.14;50.77
46129;BME280;31860;45.186;5.790;2023-08-20T04:07:29;99371.84;;;27.14;53.40
46129;BME280;31860;45.186;5.790;2023-08-20T04:09:55;99374.66;;;27.13;55.49
46129;BME280;31860;45.186;5.790;2023-08-20T04:12:20;99376.56;;;27.11;56.32
46129;BME280;31860;45.186;5.790;2023-08-20T04:14:45;99372.03;;;27.11;56.40
46129;BME280;31860;45.186;5.790;2023-08-20T04:17:10;99374.06;;;27.08;56.21
46129;BME280;31860;45.186;5.790;2023-08-20T04:19:36;99381.44;;;27.04;56.64
46129;BME280;31860;45.186;5.790;2023-08-20T04:22:01;99373.28;;;27.06;56.68
46129;BME280;31860;45.186;5.790;2023-08-20T04:24:26;99378.66;;;27.06;57.51
46129;BME280;31860;45.186;5.790;2023-08-20T04:26:52;99382.53;;;27.02;59.10
46129;BME280;31860;45.186;5.790;2023-08-20T04:29:17;99393.31;;;27.00;60.81
46129;BME280;31860;45.186;5.790;2023-08-20T04:31:42;99387.13;;;27.00;60.96
46129;BME280;31860;45.186;5.790;2023-08-20T04:34:08;99390.63;;;27.00;60.63
46129;BME280;31860;45.186;5.790;2023-08-20T04:36:33;99405.19;;;26.96;58.82
46129;BME280;31860;45.186;5.790;2023-08-20T04:38:59;99403.78;;;26.91;57.50
46129;BME280;31860;45.186;5.790;2023-08-20T04:41:24;99403.59;;;26.94;57.08
46129;BME280;31860;45.186;5.790;2023-08-20T04:43:49;99404.47;;;26.94;56.10
46129;BME280;31860;45.186;5.790;2023-08-20T04:46:15;99414.00;;;26.98;55.06
46129;BME280;31860;45.186;5.790;2023-08-20T04:48:40;99412.09;;;27.00;54.32
46129;BME280;31860;45.186;5.790;2023-08-20T04:51:05;99412.88;;;27.02;53.65
46129;BME280;31860;45.186;5.790;2023-08-20T04:53:31;99405.59;;;27.04;53.11
46129;BME280;31860;45.186;5.790;2023-08-20T04:55:58;99410.19;;;27.02;53.05
46129;BME280;31860;45.186;5.790;2023-08-20T04:58:23;99409.34;;;27.02;52.32
46129;BME280;31860;45.186;5.790;2023-08-20T05:00:49;99414.88;;;26.99;52.54
46129;BME280;31860;45.186;5.790;2023-08-20T05:03:14;99418.44;;;26.99;52.49
46129;BME280;31860;45.186;5.790;2023-08-20T05:05:39;99414.72;;;27.02;52.52
46129;BME280;31860;45.186;5.790;2023-08-20T05:08:05;99423.41;;;27.05;52.21
46129;BME280;31860;45.186;5.790;2023-08-20T05:10:30;99426.00;;;27.07;52.96
46129;BME280;31860;45.186;5.790;2023-08-20T05:12:56;99421.41;;;27.09;53.55
46129;BME280;31860;45.186;5.790;2023-08-20T05:15:21;99425.03;;;27.08;55.32
46129;BME280;31860;45.186;5.790;2023-08-20T05:17:47;99434.06;;;27.07;56.92
46129;BME280;31860;45.186;5.790;2023-08-20T05:20:13;99433.28;;;27.05;58.73
46129;BME280;31860;45.186;5.790;2023-08-20T05:22:38;99430.81;;;27.02;59.11
46129;BME280;31860;45.186;5.790;2023-08-20T05:25:04;99430.22;;;26.97;59.13
46129;BME280;31860;45.186;5.790;2023-08-20T05:27:29;99438.75;;;26.89;59.22
46129;BME280;31860;45.186;5.790;2023-08-20T05:29:54;99439.72;;;26.88;58.03
46129;BME280;31860;45.186;5.790;2023-08-20T05:32:20;99437.13;;;26.87;56.78
46129;BME280;31860;45.186;5.790;2023-08-20T05:34:45;99441.41;;;26.89;56.24
46129;BME280;31860;45.186;5.790;2023-08-20T05:37:10;99440.28;;;26.93;56.05
46129;BME280;31860;45.186;5.790;2023-08-20T05:39:41;99441.81;;;26.97;55.85
46129;BME280;31860;45.186;5.790;2023-08-20T05:42:06;99442.88;;;27.09;56.79
46129;BME280;31860;45.186;5.790;2023-08-20T05:44:32;99445.94;;;27.17;57.33
46129;BME280;31860;45.186;5.790;2023-08-20T05:46:58;99448.13;;;27.25;58.56
46129;BME280;31860;45.186;5.790;2023-08-20T05:49:23;99456.56;;;27.33;59.53
46129;BME280;31860;45.186;5.790;2023-08-20T05:51:49;99451.56;;;27.41;60.19
46129;BME280;31860;45.186;5.790;2023-08-20T05:54:14;99450.97;;;27.50;60.27
46129;BME280;31860;45.186;5.790;2023-08-20T05:56:39;99461.09;;;27.59;59.57
46129;BME280;31860;45.186;5.790;2023-08-20T05:59:05;99451.59;;;27.67;58.60
46129;BME280;31860;45.186;5.790;2023-08-20T06:01:30;99455.59;;;27.74;57.77
46129;BME280;31860;45.186;5.790;2023-08-20T06:03:56;99454.06;;;27.84;56.95
46129;BME280;31860;45.186;5.790;2023-08-20T06:06:22;99452.88;;;27.88;55.85
46129;BME280;31860;45.186;5.790;2023-08-20T06:08:47;99455.94;;;27.96;54.51
46129;BME280;31860;45.186;5.790;2023-08-20T06:11:13;99464.56;;;28.01;53.46
46129;BME280;31860;45.186;5.790;2023-08-20T06:13:38;99462.81;;;28.00;53.19
46129;BME280;31860;45.186;5.790;2023-08-20T06:16:04;99465.22;;;28.05;53.10
46129;BME280;31860;45.186;5.790;2023-08-20T06:18:30;99461.38;;;28.09;52.74
46129;BME280;31860;45.186;5.790;2023-08-20T06:20:55;99463.84;;;28.12;52.09
46129;BME280;31860;45.186;5.790;2023-08-20T06:23:20;99465.34;;;28.16;51.98
46129;BME280;31860;45.186;5.790;2023-08-20T06:25:46;99464.72;;;28.25;51.50
46129;BME280;31860;45.186;5.790;2023-08-20T06:28:11;99467.66;;;28.35;52.66
46129;BME280;31860;45.186;5.790;2023-08-20T06:30:37;99466.19;;;28.43;54.01
46129;BME280;31860;45.186;5.790;2023-08-20T06:33:02;99468.16;;;28.54;53.93
46129;BME280;31860;45.186;5.790;2023-08-20T06:35:27;99459.47;;;28.63;54.07
46129;BME280;31860;45.186;5.790;2023-08-20T06:37:53;99466.88;;;28.72;54.24
46129;BME280;31860;45.186;5.790;2023-08-20T06:40:18;99468.09;;;28.80;54.23
46129;BME280;31860;45.186;5.790;2023-08-20T06:42:43;99466.56;;;28.89;54.82
46129;BME280;31860;45.186;5.790;2023-08-20T06:45:09;99473.13;;;28.97;54.82
46129;BME280;31860;45.186;5.790;2023-08-20T06:47:34;99471.72;;;29.05;54.52
46129;BME280;31860;45.186;5.790;2023-08-20T06:50:00;99470.44;;;29.10;53.73
46129;BME280;31860;45.186;5.790;2023-08-20T06:52:25;99468.41;;;29.14;54.12
46129;BME280;31860;45.186;5.790;2023-08-20T06:54:50;99469.91;;;29.18;54.27
46129;BME280;31860;45.186;5.790;2023-08-20T06:57:16;99465.94;;;29.23;54.51
46129;BME280;31860;45.186;5.790;2023-08-20T06:59:41;99476.38;;;29.28;54.41
46129;BME280;31860;45.186;5.790;2023-08-20T07:02:08;99476.03;;;29.32;54.69
46129;BME280;31860;45.186;5.790;2023-08-20T07:04:35;99478.41;;;29.37;54.72
46129;BME280;31860;45.186;5.790;2023-08-20T07:07:00;99464.69;;;29.40;54.44
46129;BME280;31860;45.186;5.790;2023-08-20T07:09:25;99463.50;;;29.44;54.30
46129;BME280;31860;45.186;5.790;2023-08-20T07:11:51;99472.03;;;29.50;54.06
46129;BME280;31860;45.186;5.790;2023-08-20T07:14:16;99474.16;;;29.58;53.85
46129;BME280;31860;45.186;5.790;2023-08-20T07:16:42;99477.25;;;29.64;54.05
46129;BME280;31860;45.186;5.790;2023-08-20T07:19:07;99479.41;;;29.72;53.59
46129;BME280;31860;45.186;5.790;2023-08-20T07:21:32;99476.16;;;29.79;53.39
46129;BME280;31860;45.186;5.790;2023-08-20T07:23:58;99472.13;;;29.85;53.10
46129;BME280;31860;45.186;5.790;2023-08-20T07:26:23;99469.75;;;29.93;52.89
46129;BME280;31860;45.186;5.790;2023-08-20T07:28:48;99471.97;;;29.99;52.09
46129;BME280;31860;45.186;5.790;2023-08-20T07:31:23;99468.72;;;30.07;51.36
46129;BME280;31860;45.186;5.790;2023-08-20T07:33:50;99470.31;;;30.09;51.30
46129;BME280;31860;45.186;5.790;2023-08-20T07:36:17;99466.53;;;30.12;51.06
46129;BME280;31860;45.186;5.790;2023-08-20T07:38:43;99464.56;;;30.14;50.53
46129;BME280;31860;45.186;5.790;2023-08-20T07:41:09;99471.69;;;30.15;50.35
46129;BME280;31860;45.186;5.790;2023-08-20T07:43:37;99467.81;;;30.19;50.12
46129;BME280;31860;45.186;5.790;2023-08-20T07:46:03;99468.63;;;30.19;50.22
46129;BME280;31860;45.186;5.790;2023-08-20T07:48:28;99475.53;;;30.23;50.11
46129;BME280;31860;45.186;5.790;2023-08-20T07:50:54;99476.25;;;30.25;49.74
46129;BME280;31860;45.186;5.790;2023-08-20T07:53:19;99468.09;;;30.27;49.44
46129;BME280;31860;45.186;5.790;2023-08-20T07:55:44;99465.28;;;30.28;48.80
46129;BME280;31860;45.186;5.790;2023-08-20T07:58:10;99470.44;;;30.31;48.32
46129;BME280;31860;45.186;5.790;2023-08-20T08:00:35;99472.91;;;30.34;47.76
46129;BME280;31860;45.186;5.790;2023-08-20T08:03:00;99471.81;;;30.37;47.59
46129;BME280;31860;45.186;5.790;2023-08-20T08:05:26;99463.59;;;30.38;47.00
46129;BME280;31860;45.186;5.790;2023-08-20T08:07:51;99470.47;;;30.42;46.89
46129;BME280;31860;45.186;5.790;2023-08-20T08:10:16;99469.50;;;30.43;46.19
46129;BME280;31860;45.186;5.790;2023-08-20T08:12:42;99482.75;;;30.46;46.26
46129;BME280;31860;45.186;5.790;2023-08-20T08:15:07;99478.84;;;30.50;46.38
46129;BME280;31860;45.186;5.790;2023-08-20T08:17:33;99474.94;;;30.54;46.17
46129;BME280;31860;45.186;5.790;2023-08-20T08:19:58;99473.69;;;30.58;46.02
46129;BME280;31860;45.186;5.790;2023-08-20T08:22:23;99475.19;;;30.62;46.00
46129;BME280;31860;45.186;5.790;2023-08-20T08:24:49;99473.09;;;30.66;45.85
46129;BME280;31860;45.186;5.790;2023-08-20T08:27:14;99468.34;;;30.69;46.05
46129;BME280;31860;45.186;5.790;2023-08-20T08:29:40;99467.03;;;30.75;46.04
46129;BME280;31860;45.186;5.790;2023-08-20T08:32:05;99466.66;;;30.79;45.81
46129;BME280;31860;45.186;5.790;2023-08-20T08:34:30;99459.19;;;30.83;45.62
46129;BME280;31860;45.186;5.790;2023-08-20T08:36:56;99461.41;;;30.89;45.73
46129;BME280;31860;45.186;5.790;2023-08-20T08:39:21;99453.94;;;30.93;45.99
46129;BME280;31860;45.186;5.790;2023-08-20T08:41:50;99458.97;;;30.97;46.27
46129;BME280;31860;45.186;5.790;2023-08-20T08:44:16;99459.38;;;31.04;46.27
46129;BME280;31860;45.186;5.790;2023-08-20T08:46:42;99457.03;;;31.10;46.12
46129;BME280;31860;45.186;5.790;2023-08-20T08:49:08;99453.97;;;31.15;45.82
46129;BME280;31860;45.186;5.790;2023-08-20T08:51:34;99456.28;;;31.19;45.18
46129;BME280;31860;45.186;5.790;2023-08-20T08:54:01;99452.34;;;31.23;44.95
46129;BME280;31860;45.186;5.790;2023-08-20T08:56:27;99455.53;;;31.28;44.98
46129;BME280;31860;45.186;5.790;2023-08-20T08:58:53;99454.31;;;31.32;45.21
46129;BME280;31860;45.186;5.790;2023-08-20T09:01:19;99452.16;;;31.37;45.25
46129;BME280;31860;45.186;5.790;2023-08-20T09:03:45;99444.53;;;31.42;45.46
46129;BME280;31860;45.186;5.790;2023-08-20T09:06:10;99449.44;;;31.48;45.19
46129;BME280;31860;45.186;5.790;2023-08-20T09:08:36;99447.34;;;31.52;44.40
46129;BME280;31860;45.186;5.790;2023-08-20T09:11:02;99439.69;;;31.57;44.37
46129;BME280;31860;45.186;5.790;2023-08-20T09:13:36;99437.50;;;31.62;43.70
46129;BME280;31860;45.186;5.790;2023-08-20T09:16:05;99441.78;;;31.64;42.68
46129;BME280;31860;45.186;5.790;2023-08-20T09:18:32;99436.13;;;31.67;44.04
46129;BME280;31860;45.186;5.790;2023-08-20T09:20:57;99439.44;;;31.71;43.56
46129;BME280;31860;45.186;5.790;2023-08-20T09:23:28;99435.38;;;31.77;43.04
46129;BME280;31860;45.186;5.790;2023-08-20T09:25:53;99435.69;;;31.83;42.75
46129;BME280;31860;45.186;5.790;2023-08-20T09:28:19;99431.56;;;31.90;42.80
46129;BME280;31860;45.186;5.790;2023-08-20T09:30:58;99424.78;;;31.96;41.50
46129;BME280;31860;45.186;5.790;2023-08-20T09:33:23;99428.66;;;32.03;41.81
46129;BME280;31860;45.186;5.790;2023-08-20T09:35:49;99425.47;;;32.09;41.53
46129;BME280;31860;45.186;5.790;2023-08-20T09:38:19;99427.66;;;32.15;40.46
46129;BME280;31860;45.186;5.790;2023-08-20T09:40:46;99423.56;;;32.20;40.85
46129;BME280;31860;45.186;5.790;2023-08-20T09:43:15;99420.44;;;32.25;40.53
46129;BME280;31860;45.186;5.790;2023-08-20T09:45:42;99412.81;;;32.30;40.61
46129;BME280;31860;45.186;5.790;2023-08-20T09:48:09;99417.69;;;32.36;39.74
46129;BME280;31860;45.186;5.790;2023-08-20T09:50:36;99419.88;;;32.42;39.49
46129;BME280;31860;45.186;5.790;2023-08-20T09:53:12;99411.25;;;32.48;39.56
46129;BME280;31860;45.186;5.790;2023-08-20T09:55:41;99414.31;;;32.54;39.89
46129;BME280;31860;45.186;5.790;2023-08-20T09:58:08;99411.91;;;32.61;39.97
46129;BME280;31860;45.186;5.790;2023-08-20T10:00:34;99409.53;;;32.68;39.54
46129;BME280;31860;45.186;5.790;2023-08-20T10:03:00;99413.28;;;32.76;39.58
46129;BME280;31860;45.186;5.790;2023-08-20T10:05:26;99405.50;;;32.83;39.52
46129;BME280;31860;45.186;5.790;2023-08-20T10:07:52;99400.38;;;32.89;39.04
46129;BME280;31860;45.186;5.790;2023-08-20T10:10:18;99401.81;;;32.93;39.02
46129;BME280;31860;45.186;5.790;2023-08-20T10:12:43;99403.75;;;33.02;38.79
46129;BME280;31860;45.186;5.790;2023-08-20T10:15:12;99404.81;;;33.11;38.73
46129;BME280;31860;45.186;5.790;2023-08-20T10:17:39;99404.94;;;33.19;38.56
46129;BME280;31860;45.186;5.790;2023-08-20T10:20:06;99399.00;;;33.25;38.35
46129;BME280;31860;45.186;5.790;2023-08-20T10:22:35;99402.84;;;33.32;38.40
46129;BME280;31860;45.186;5.790;2023-08-20T10:25:05;99396.75;;;33.39;38.33
46129;BME280;31860;45.186;5.790;2023-08-20T10:27:34;99397.09;;;33.46;38.67
46129;BME280;31860;45.186;5.790;2023-08-20T10:30:00;99390.97;;;33.54;38.21
46129;BME280;31860;45.186;5.790;2023-08-20T10:35:15;99392.44;;;33.77;37.38
46129;BME280;31860;45.186;5.790;2023-08-20T10:38:17;99390.00;;;33.74;36.25
46129;BME280;31860;45.186;5.790;2023-08-20T10:43:36;99385.28;;;33.66;36.40
46129;BME280;31860;45.186;5.790;2023-08-20T10:46:17;99387.16;;;33.66;36.06
46129;BME280;31860;45.186;5.790;2023-08-20T10:48:56;99378.88;;;33.67;35.73
46129;BME280;31860;45.186;5.790;2023-08-20T10:51:27;99377.03;;;33.68;35.65
46129;BME280;31860;45.186;5.790;2023-08-20T10:56:45;99375.88;;;33.70;34.90
46129;BME280;31860;45.186;5.790;2023-08-20T10:59:26;99366.75;;;33.71;34.74
46129;BME280;31860;45.186;5.790;2023-08-20T11:01:56;99365.75;;;33.72;35.54
46129;BME280;31860;45.186;5.790;2023-08-20T11:04:24;99358.47;;;33.73;35.91
46129;BME280;31860;45.186;5.790;2023-08-20T11:06:58;99355.59;;;33.74;35.14
46129;BME280;31860;45.186;5.790;2023-08-20T11:09:26;99355.47;;;33.76;35.68
46129;BME280;31860;45.186;5.790;2023-08-20T11:11:52;99355.31;;;33.77;35.38
46129;BME280;31860;45.186;5.790;2023-08-20T11:14:19;99347.91;;;33.79;35.12
46129;BME280;31860;45.186;5.790;2023-08-20T11:16:45;99338.78;;;33.80;35.16
46129;BME280;31860;45.186;5.790;2023-08-20T11:19:12;99336.63;;;33.84;34.92
46129;BME280;31860;45.186;5.790;2023-08-20T11:21:40;99333.78;;;33.85;35.02
46129;BME280;31860;45.186;5.790;2023-08-20T11:24:09;99338.06;;;33.88;34.85
46129;BME280;31860;45.186;5.790;2023-08-20T11:26:39;99331.50;;;33.90;35.43
46129;BME280;31860;45.186;5.790;2023-08-20T11:29:13;99329.47;;;33.92;34.82
46129;BME280;31860;45.186;5.790;2023-08-20T11:31:38;99326.19;;;33.89;35.16
46129;BME280;31860;45.186;5.790;2023-08-20T11:34:05;99322.50;;;33.90;35.57
46129;BME280;31860;45.186;5.790;2023-08-20T11:36:31;99323.22;;;33.92;35.48
46129;BME280;31860;45.186;5.790;2023-08-20T11:38:57;99319.22;;;33.96;35.17
46129;BME280;31860;45.186;5.790;2023-08-20T11:41:23;99315.22;;;34.00;35.07
46129;BME280;31860;45.186;5.790;2023-08-20T11:43:49;99314.66;;;34.06;35.07
46129;BME280;31860;45.186;5.790;2023-08-20T11:46:17;99310.66;;;34.10;35.02
46129;BME280;31860;45.186;5.790;2023-08-20T11:49:02;99305.94;;;34.12;34.22
46129;BME280;31860;45.186;5.790;2023-08-20T11:51:41;99309.22;;;34.15;33.99
46129;BME280;31860;45.186;5.790;2023-08-20T11:54:09;99302.81;;;34.16;34.47
46129;BME280;31860;45.186;5.790;2023-08-20T11:56:35;99305.94;;;34.21;34.05
46129;BME280;31860;45.186;5.790;2023-08-20T11:59:01;99301.91;;;34.25;33.88
46129;BME280;31860;45.186;5.790;2023-08-20T12:01:31;99297.19;;;34.27;32.72
46129;BME280;31860;45.186;5.790;2023-08-20T12:04:03;99304.19;;;34.30;33.17
46129;BME280;31860;45.186;5.790;2023-08-20T12:06:29;99295.03;;;34.31;33.40
46129;BME280;31860;45.186;5.790;2023-08-20T12:08:56;99295.59;;;34.34;33.45
46129;BME280;31860;45.186;5.790;2023-08-20T12:11:26;99292.75;;;34.36;32.81
46129;BME280;31860;45.186;5.790;2023-08-20T12:13:51;99281.72;;;34.37;33.25
46129;BME280;31860;45.186;5.790;2023-08-20T12:16:17;99289.59;;;34.40;33.02
46129;BME280;31860;45.186;5.790;2023-08-20T12:18:45;99290.16;;;34.44;33.06
46129;BME280;31860;45.186;5.790;2023-08-20T12:21:10;99287.31;;;34.46;32.94
46129;BME280;31860;45.186;5.790;2023-08-20T12:23:36;99287.16;;;34.47;33.22
46129;BME280;31860;45.186;5.790;2023-08-20T12:26:02;99274.44;;;34.48;32.77
46129;BME280;31860;45.186;5.790;2023-08-20T12:28:27;99276.19;;;34.49;33.33
46129;BME280;31860;45.186;5.790;2023-08-20T12:30:52;99276.03;;;34.50;33.63
46129;BME280;31860;45.186;5.790;2023-08-20T12:33:18;99274.16;;;34.51;33.77
46129;BME280;31860;45.186;5.790;2023-08-20T12:35:44;99267.56;;;34.53;33.28
46129;BME280;31860;45.186;5.790;2023-08-20T12:38:09;99275.56;;;34.55;33.42
46129;BME280;31860;45.186;5.790;2023-08-20T12:40:35;99271.84;;;34.56;33.14
46129;BME280;31860;45.186;5.790;2023-08-20T12:43:01;99261.00;;;34.56;33.30
46129;BME280;31860;45.186;5.790;2023-08-20T12:45:26;99268.13;;;34.57;33.41
46129;BME280;31860;45.186;5.790;2023-08-20T12:47:51;99266.13;;;34.59;33.12
46129;BME280;31860;45.186;5.790;2023-08-20T12:50:16;99255.97;;;34.61;32.93
46129;BME280;31860;45.186;5.790;2023-08-20T12:52:42;99257.53;;;34.63;32.89
46129;BME280;31860;45.186;5.790;2023-08-20T12:55:08;99251.94;;;34.65;32.75
46129;BME280;31860;45.186;5.790;2023-08-20T12:57:35;99258.94;;;34.67;32.82
46129;BME280;31860;45.186;5.790;2023-08-20T13:00:01;99250.09;;;34.65;32.88
46129;BME280;31860;45.186;5.790;2023-08-20T13:02:26;99243.63;;;34.66;32.51
46129;BME280;31860;45.186;5.790;2023-08-20T13:04:52;99242.66;;;34.67;32.57
46129;BME280;31860;45.186;5.790;2023-08-20T13:07:18;99237.06;;;34.69;32.03
46129;BME280;31860;45.186;5.790;2023-08-20T13:09:43;99236.19;;;34.68;32.02